sensor_id;sensor_type;location;lat;lon;timestamp;P1;durP1;ratioP1;P2;durP2;ratioP2
173;SDS011;75;48.784;9.364;2022-12-11T00:01:19;35.57;;;20.33;;
173;SDS011;75;48.784;9.364;2022-12-11T00:03:47;36.23;;;20.20;;
173;SDS011;75;48.784;9.364;2022-12-11T00:06:16;33.57;;;19.90;;
173;SDS011;75;48.784;9.364;2022-12-11T00:08:43;34.13;;;20.70;;
173;SDS011;75;48.784;9.364;2022-12-11T00:11:11;34.60;;;20.13;;
173;SDS011;75;48.784;9.364;2022-12-11T00:13:39;31.50;;;18.87;;
173;SDS011;75;48.784;9.364;2022-12-11T00:16:07;34.57;;;19.70;;
173;SDS011;75;48.784;9.364;2022-12-11T00:18:34;33.80;;;20.50;;
173;SDS011;75;48.784;9.364;2022-12-11T00:21:05;34.30;;;20.47;;
173;SDS011;75;48.784;9.364;2022-12-11T00:23:33;35.00;;;20.43;;
173;SDS011;75;48.784;9.364;2022-12-11T00:26:03;35.23;;;20.27;;
173;SDS011;75;48.784;9.364;2022-12-11T00:28:31;37.67;;;22.30;;
173;SDS011;75;48.784;9.364;2022-12-11T00:31:02;38.63;;;22.00;;
173;SDS011;75;48.784;9.364;2022-12-11T00:33:29;35.50;;;21.10;;
173;SDS011;75;48.784;9.364;2022-12-11T00:35:57;36.00;;;21.50;;
173;SDS011;75;48.784;9.364;2022-12-11T00:38:24;36.93;;;22.10;;
173;SDS011;75;48.784;9.364;2022-12-11T00:40:51;41.40;;;21.20;;
173;SDS011;75;48.784;9.364;2022-12-11T00:43:19;38.83;;;22.67;;
173;SDS011;75;48.784;9.364;2022-12-11T00:45:46;40.03;;;24.10;;
173;SDS011;75;48.784;9.364;2022-12-11T00:48:14;40.63;;;23.07;;
173;SDS011;75;48.784;9.364;2022-12-11T00:50:41;39.00;;;22.87;;
173;SDS011;75;48.784;9.364;2022-12-11T00:53:08;40.30;;;24.20;;
173;SDS011;75;48.784;9.364;2022-12-11T00:55:37;45.90;;;25.27;;
173;SDS011;75;48.784;9.364;2022-12-11T00:58:04;45.53;;;25.73;;
173;SDS011;75;48.784;9.364;2022-12-11T01:00:32;42.43;;;24.87;;
173;SDS011;75;48.784;9.364;2022-12-11T01:02:59;46.10;;;26.67;;
173;SDS011;75;48.784;9.364;2022-12-11T01:05:27;42.53;;;26.13;;
173;SDS011;75;48.784;9.364;2022-12-11T01:07:54;43.17;;;25.10;;
173;SDS011;75;48.784;9.364;2022-12-11T01:10:22;42.23;;;26.40;;
173;SDS011;75;48.784;9.364;2022-12-11T01:12:56;45.33;;;25.83;;
173;SDS011;75;48.784;9.364;2022-12-11T01:15:27;47.70;;;26.37;;
173;SDS011;75;48.784;9.364;2022-12-11T01:17:55;47.70;;;26.60;;
173;SDS011;75;48.784;9.364;2022-12-11T01:20:23;45.30;;;25.80;;
173;SDS011;75;48.784;9.364;2022-12-11T01:22:51;43.60;;;26.50;;
173;SDS011;75;48.784;9.364;2022-12-11T01:25:19;47.70;;;26.70;;
173;SDS011;75;48.784;9.364;2022-12-11T01:27:46;42.13;;;24.57;;
173;SDS011;75;48.784;9.364;2022-12-11T01:30:15;43.90;;;25.60;;
173;SDS011;75;48.784;9.364;2022-12-11T01:32:43;41.33;;;24.37;;
173;SDS011;75;48.784;9.364;2022-12-11T01:35:11;47.10;;;25.70;;
173;SDS011;75;48.784;9.364;2022-12-11T01:37:39;42.83;;;25.30;;
173;SDS011;75;48.784;9.364;2022-12-11T01:40:07;42.40;;;24.70;;
173;SDS011;75;48.784;9.364;2022-12-11T01:42:35;42.43;;;24.63;;
173;SDS011;75;48.784;9.364;2022-12-11T01:47:43;40.40;;;23.10;;
173;SDS011;75;48.784;9.364;2022-12-11T01:50:10;38.70;;;22.77;;
173;SDS011;75;48.784;9.364;2022-12-11T01:52:37;38.47;;;23.30;;
173;SDS011;75;48.784;9.364;2022-12-11T01:55:05;38.90;;;22.07;;
173;SDS011;75;48.784;9.364;2022-12-11T01:57:37;36.97;;;21.73;;
173;SDS011;75;48.784;9.364;2022-12-11T02:00:07;41.57;;;24.70;;
173;SDS011;75;48.784;9.364;2022-12-11T02:02:34;43.30;;;24.73;;
173;SDS011;75;48.784;9.364;2022-12-11T02:05:02;43.40;;;24.83;;
173;SDS011;75;48.784;9.364;2022-12-11T02:07:36;40.33;;;23.97;;
173;SDS011;75;48.784;9.364;2022-12-11T02:10:05;39.37;;;23.10;;
173;SDS011;75;48.784;9.364;2022-12-11T02:12:45;40.20;;;24.33;;
173;SDS011;75;48.784;9.364;2022-12-11T02:15:24;37.67;;;22.20;;
173;SDS011;75;48.784;9.364;2022-12-11T02:17:58;37.43;;;21.87;;
173;SDS011;75;48.784;9.364;2022-12-11T02:25:31;34.00;;;19.80;;
173;SDS011;75;48.784;9.364;2022-12-11T02:28:16;32.63;;;19.43;;
173;SDS011;75;48.784;9.364;2022-12-11T02:30:45;31.27;;;18.50;;
173;SDS011;75;48.784;9.364;2022-12-11T02:33:15;31.87;;;19.13;;
173;SDS011;75;48.784;9.364;2022-12-11T02:35:44;32.20;;;18.47;;
173;SDS011;75;48.784;9.364;2022-12-11T02:38:21;31.00;;;18.47;;
173;SDS011;75;48.784;9.364;2022-12-11T02:40:50;34.23;;;19.50;;
173;SDS011;75;48.784;9.364;2022-12-11T02:43:18;35.90;;;20.50;;
173;SDS011;75;48.784;9.364;2022-12-11T02:45:46;33.83;;;20.43;;
173;SDS011;75;48.784;9.364;2022-12-11T02:48:14;35.30;;;20.60;;
173;SDS011;75;48.784;9.364;2022-12-11T02:50:45;30.40;;;19.20;;
173;SDS011;75;48.784;9.364;2022-12-11T02:53:15;35.20;;;20.90;;
173;SDS011;75;48.784;9.364;2022-12-11T02:55:43;31.93;;;19.47;;
173;SDS011;75;48.784;9.364;2022-12-11T02:58:18;31.67;;;18.77;;
173;SDS011;75;48.784;9.364;2022-12-11T03:00:48;31.17;;;19.13;;
173;SDS011;75;48.784;9.364;2022-12-11T03:03:15;28.20;;;17.93;;
173;SDS011;75;48.784;9.364;2022-12-11T03:05:43;26.90;;;16.97;;
173;SDS011;75;48.784;9.364;2022-12-11T03:08:11;30.70;;;19.10;;
173;SDS011;75;48.784;9.364;2022-12-11T03:10:43;28.00;;;17.00;;
173;SDS011;75;48.784;9.364;2022-12-11T03:13:11;37.70;;;23.07;;
173;SDS011;75;48.784;9.364;2022-12-11T03:18:14;28.23;;;16.90;;
173;SDS011;75;48.784;9.364;2022-12-11T03:20:46;27.57;;;16.73;;
173;SDS011;75;48.784;9.364;2022-12-11T03:23:21;29.10;;;16.13;;
173;SDS011;75;48.784;9.364;2022-12-11T03:25:52;29.13;;;17.50;;
173;SDS011;75;48.784;9.364;2022-12-11T03:28:23;31.90;;;19.33;;
173;SDS011;75;48.784;9.364;2022-12-11T03:30:53;32.57;;;20.00;;
173;SDS011;75;48.784;9.364;2022-12-11T03:33:30;31.33;;;18.80;;
173;SDS011;75;48.784;9.364;2022-12-11T03:36:04;32.80;;;18.87;;
173;SDS011;75;48.784;9.364;2022-12-11T03:38:36;29.27;;;18.00;;
173;SDS011;75;48.784;9.364;2022-12-11T03:41:05;30.70;;;18.50;;
173;SDS011;75;48.784;9.364;2022-12-11T03:43:33;34.40;;;19.70;;
173;SDS011;75;48.784;9.364;2022-12-11T03:46:01;36.00;;;19.80;;
173;SDS011;75;48.784;9.364;2022-12-11T03:48:30;34.67;;;20.17;;
173;SDS011;75;48.784;9.364;2022-12-11T03:50:59;38.60;;;22.93;;
173;SDS011;75;48.784;9.364;2022-12-11T03:53:26;36.57;;;20.87;;
173;SDS011;75;48.784;9.364;2022-12-11T03:55:54;35.87;;;20.90;;
173;SDS011;75;48.784;9.364;2022-12-11T03:58:23;34.90;;;19.30;;
173;SDS011;75;48.784;9.364;2022-12-11T04:00:51;33.93;;;19.80;;
173;SDS011;75;48.784;9.364;2022-12-11T04:03:18;32.97;;;20.10;;
173;SDS011;75;48.784;9.364;2022-12-11T04:05:46;36.73;;;20.43;;
173;SDS011;75;48.784;9.364;2022-12-11T04:08:14;37.00;;;20.50;;
173;SDS011;75;48.784;9.364;2022-12-11T04:10:42;35.87;;;20.37;;
173;SDS011;75;48.784;9.364;2022-12-11T04:13:10;36.77;;;22.23;;
173;SDS011;75;48.784;9.364;2022-12-11T04:15:37;40.53;;;22.30;;
173;SDS011;75;48.784;9.364;2022-12-11T04:18:05;38.80;;;21.57;;
173;SDS011;75;48.784;9.364;2022-12-11T04:20:52;38.20;;;21.43;;
173;SDS011;75;48.784;9.364;2022-12-11T04:23:38;39.70;;;22.50;;
173;SDS011;75;48.784;9.364;2022-12-11T04:26:24;36.40;;;22.23;;
173;SDS011;75;48.784;9.364;2022-12-11T04:28:52;42.43;;;23.80;;
173;SDS011;75;48.784;9.364;2022-12-11T04:31:20;41.10;;;23.20;;
173;SDS011;75;48.784;9.364;2022-12-11T04:33:47;38.10;;;22.60;;
173;SDS011;75;48.784;9.364;2022-12-11T04:36:14;42.90;;;23.13;;
173;SDS011;75;48.784;9.364;2022-12-11T04:38:44;43.37;;;23.73;;
173;SDS011;75;48.784;9.364;2022-12-11T04:41:13;41.73;;;24.00;;
173;SDS011;75;48.784;9.364;2022-12-11T04:43:40;41.27;;;24.30;;
173;SDS011;75;48.784;9.364;2022-12-11T04:46:12;46.87;;;27.60;;
173;SDS011;75;48.784;9.364;2022-12-11T04:48:39;46.00;;;26.40;;
173;SDS011;75;48.784;9.364;2022-12-11T04:51:07;45.13;;;25.40;;
173;SDS011;75;48.784;9.364;2022-12-11T04:53:35;45.33;;;24.93;;
173;SDS011;75;48.784;9.364;2022-12-11T04:56:06;45.50;;;25.97;;
173;SDS011;75;48.784;9.364;2022-12-11T04:58:34;42.37;;;24.87;;
173;SDS011;75;48.784;9.364;2022-12-11T05:01:12;44.70;;;25.17;;
173;SDS011;75;48.784;9.364;2022-12-11T05:03:40;45.40;;;26.20;;
173;SDS011;75;48.784;9.364;2022-12-11T05:06:08;43.67;;;24.93;;
173;SDS011;75;48.784;9.364;2022-12-11T05:08:36;44.10;;;25.50;;
173;SDS011;75;48.784;9.364;2022-12-11T05:11:06;35.90;;;20.73;;
173;SDS011;75;48.784;9.364;2022-12-11T05:13:34;29.57;;;18.47;;
173;SDS011;75;48.784;9.364;2022-12-11T05:16:05;35.87;;;21.73;;
173;SDS011;75;48.784;9.364;2022-12-11T05:18:33;44.40;;;25.37;;
173;SDS011;75;48.784;9.364;2022-12-11T05:21:01;43.27;;;25.50;;
173;SDS011;75;48.784;9.364;2022-12-11T05:23:29;41.77;;;23.47;;
173;SDS011;75;48.784;9.364;2022-12-11T05:25:57;39.60;;;23.00;;
173;SDS011;75;48.784;9.364;2022-12-11T05:28:25;39.17;;;22.43;;
173;SDS011;75;48.784;9.364;2022-12-11T05:30:54;40.60;;;24.30;;
173;SDS011;75;48.784;9.364;2022-12-11T05:33:22;42.43;;;24.13;;
173;SDS011;75;48.784;9.364;2022-12-11T05:35:49;36.90;;;22.10;;
173;SDS011;75;48.784;9.364;2022-12-11T05:38:17;44.10;;;23.60;;
173;SDS011;75;48.784;9.364;2022-12-11T05:40:44;45.00;;;24.93;;
173;SDS011;75;48.784;9.364;2022-12-11T05:43:11;38.37;;;23.57;;
173;SDS011;75;48.784;9.364;2022-12-11T05:45:39;42.17;;;23.80;;
173;SDS011;75;48.784;9.364;2022-12-11T05:48:06;39.73;;;23.50;;
173;SDS011;75;48.784;9.364;2022-12-11T05:50:33;39.93;;;24.27;;
173;SDS011;75;48.784;9.364;2022-12-11T05:53:01;41.40;;;24.93;;
173;SDS011;75;48.784;9.364;2022-12-11T05:55:33;45.87;;;26.33;;
173;SDS011;75;48.784;9.364;2022-12-11T05:58:00;43.93;;;24.67;;
173;SDS011;75;48.784;9.364;2022-12-11T06:00:27;43.37;;;25.40;;
173;SDS011;75;48.784;9.364;2022-12-11T06:02:55;43.90;;;23.87;;
173;SDS011;75;48.784;9.364;2022-12-11T06:05:22;45.20;;;23.80;;
173;SDS011;75;48.784;9.364;2022-12-11T06:07:49;43.33;;;23.97;;
173;SDS011;75;48.784;9.364;2022-12-11T06:10:17;40.20;;;23.03;;
173;SDS011;75;48.784;9.364;2022-12-11T06:12:44;39.17;;;21.40;;
173;SDS011;75;48.784;9.364;2022-12-11T06:15:11;35.50;;;21.10;;
173;SDS011;75;48.784;9.364;2022-12-11T06:17:38;33.10;;;18.53;;
173;SDS011;75;48.784;9.364;2022-12-11T06:20:06;43.83;;;24.60;;
173;SDS011;75;48.784;9.364;2022-12-11T06:22:33;43.47;;;25.23;;
173;SDS011;75;48.784;9.364;2022-12-11T06:25:01;49.47;;;26.60;;
173;SDS011;75;48.784;9.364;2022-12-11T06:27:28;49.33;;;25.43;;
173;SDS011;75;48.784;9.364;2022-12-11T06:29:56;48.30;;;27.70;;
173;SDS011;75;48.784;9.364;2022-12-11T06:32:23;52.03;;;29.53;;
173;SDS011;75;48.784;9.364;2022-12-11T06:34:51;50.27;;;29.67;;
173;SDS011;75;48.784;9.364;2022-12-11T06:37:18;48.47;;;28.77;;
173;SDS011;75;48.784;9.364;2022-12-11T06:39:45;50.47;;;28.77;;
173;SDS011;75;48.784;9.364;2022-12-11T06:42:13;50.93;;;29.30;;
173;SDS011;75;48.784;9.364;2022-12-11T06:44:41;52.50;;;28.13;;
173;SDS011;75;48.784;9.364;2022-12-11T06:47:09;48.80;;;29.13;;
173;SDS011;75;48.784;9.364;2022-12-11T06:49:36;59.20;;;32.90;;
173;SDS011;75;48.784;9.364;2022-12-11T06:52:04;54.40;;;31.30;;
173;SDS011;75;48.784;9.364;2022-12-11T06:54:32;50.77;;;29.50;;
173;SDS011;75;48.784;9.364;2022-12-11T06:56:59;45.13;;;25.43;;
173;SDS011;75;48.784;9.364;2022-12-11T06:59:27;45.93;;;24.77;;
173;SDS011;75;48.784;9.364;2022-12-11T07:01:54;49.30;;;28.30;;
173;SDS011;75;48.784;9.364;2022-12-11T07:04:21;47.90;;;27.37;;
173;SDS011;75;48.784;9.364;2022-12-11T07:06:52;54.77;;;29.10;;
173;SDS011;75;48.784;9.364;2022-12-11T07:09:20;57.87;;;32.77;;
173;SDS011;75;48.784;9.364;2022-12-11T07:11:48;53.80;;;30.43;;
173;SDS011;75;48.784;9.364;2022-12-11T07:14:16;52.20;;;30.97;;
173;SDS011;75;48.784;9.364;2022-12-11T07:16:43;54.80;;;29.73;;
173;SDS011;75;48.784;9.364;2022-12-11T07:19:11;56.83;;;31.83;;
173;SDS011;75;48.784;9.364;2022-12-11T07:21:38;65.10;;;37.20;;
173;SDS011;75;48.784;9.364;2022-12-11T07:24:06;58.23;;;33.70;;
173;SDS011;75;48.784;9.364;2022-12-11T07:26:33;60.83;;;32.20;;
173;SDS011;75;48.784;9.364;2022-12-11T07:29:01;54.37;;;32.73;;
173;SDS011;75;48.784;9.364;2022-12-11T07:31:28;55.47;;;31.57;;
173;SDS011;75;48.784;9.364;2022-12-11T07:33:56;50.27;;;30.93;;
173;SDS011;75;48.784;9.364;2022-12-11T07:36:24;56.83;;;33.30;;
173;SDS011;75;48.784;9.364;2022-12-11T07:38:52;49.50;;;29.53;;
173;SDS011;75;48.784;9.364;2022-12-11T07:41:20;47.60;;;26.33;;
173;SDS011;75;48.784;9.364;2022-12-11T07:43:47;39.57;;;25.00;;
173;SDS011;75;48.784;9.364;2022-12-11T07:46:16;37.03;;;22.70;;
173;SDS011;75;48.784;9.364;2022-12-11T07:48:44;37.03;;;23.50;;
173;SDS011;75;48.784;9.364;2022-12-11T07:51:22;39.70;;;23.63;;
173;SDS011;75;48.784;9.364;2022-12-11T07:53:52;41.20;;;25.70;;
173;SDS011;75;48.784;9.364;2022-12-11T07:56:20;45.27;;;27.70;;
173;SDS011;75;48.784;9.364;2022-12-11T07:58:47;44.60;;;28.23;;
173;SDS011;75;48.784;9.364;2022-12-11T08:01:16;39.23;;;25.00;;
173;SDS011;75;48.784;9.364;2022-12-11T08:03:43;40.93;;;25.57;;
173;SDS011;75;48.784;9.364;2022-12-11T08:06:11;46.43;;;28.67;;
173;SDS011;75;48.784;9.364;2022-12-11T08:08:39;48.60;;;27.20;;
173;SDS011;75;48.784;9.364;2022-12-11T08:11:08;46.33;;;28.40;;
173;SDS011;75;48.784;9.364;2022-12-11T08:13:36;49.47;;;30.57;;
173;SDS011;75;48.784;9.364;2022-12-11T08:16:04;47.43;;;28.20;;
173;SDS011;75;48.784;9.364;2022-12-11T08:18:32;45.83;;;26.47;;
173;SDS011;75;48.784;9.364;2022-12-11T08:23:33;46.90;;;28.57;;
173;SDS011;75;48.784;9.364;2022-12-11T08:26:01;40.80;;;25.37;;
173;SDS011;75;48.784;9.364;2022-12-11T08:28:29;45.27;;;27.00;;
173;SDS011;75;48.784;9.364;2022-12-11T08:30:56;44.87;;;26.23;;
173;SDS011;75;48.784;9.364;2022-12-11T08:33:24;42.17;;;25.07;;
173;SDS011;75;48.784;9.364;2022-12-11T08:35:51;41.30;;;24.97;;
173;SDS011;75;48.784;9.364;2022-12-11T08:38:18;39.50;;;24.97;;
173;SDS011;75;48.784;9.364;2022-12-11T08:40:46;37.70;;;22.67;;
173;SDS011;75;48.784;9.364;2022-12-11T08:43:13;43.27;;;23.60;;
173;SDS011;75;48.784;9.364;2022-12-11T08:45:40;39.27;;;23.80;;
173;SDS011;75;48.784;9.364;2022-12-11T08:48:08;37.83;;;23.07;;
173;SDS011;75;48.784;9.364;2022-12-11T08:50:35;38.73;;;23.23;;
173;SDS011;75;48.784;9.364;2022-12-11T08:53:03;43.40;;;26.03;;
173;SDS011;75;48.784;9.364;2022-12-11T08:55:31;41.83;;;25.43;;
173;SDS011;75;48.784;9.364;2022-12-11T08:57:58;41.93;;;24.83;;
173;SDS011;75;48.784;9.364;2022-12-11T09:00:25;45.93;;;26.70;;
173;SDS011;75;48.784;9.364;2022-12-11T09:02:53;42.97;;;25.77;;
173;SDS011;75;48.784;9.364;2022-12-11T09:05:20;47.60;;;28.50;;
173;SDS011;75;48.784;9.364;2022-12-11T09:07:47;45.93;;;27.40;;
173;SDS011;75;48.784;9.364;2022-12-11T09:10:15;47.80;;;27.37;;
173;SDS011;75;48.784;9.364;2022-12-11T09:12:42;53.67;;;32.00;;
173;SDS011;75;48.784;9.364;2022-12-11T09:15:10;52.07;;;29.17;;
173;SDS011;75;48.784;9.364;2022-12-11T09:17:37;47.30;;;27.80;;
173;SDS011;75;48.784;9.364;2022-12-11T09:20:05;46.50;;;27.70;;
173;SDS011;75;48.784;9.364;2022-12-11T09:22:32;51.57;;;28.50;;
173;SDS011;75;48.784;9.364;2022-12-11T09:25:00;46.40;;;27.90;;
173;SDS011;75;48.784;9.364;2022-12-11T09:27:27;45.90;;;27.07;;
173;SDS011;75;48.784;9.364;2022-12-11T09:29:54;46.77;;;28.40;;
173;SDS011;75;48.784;9.364;2022-12-11T09:32:22;46.50;;;27.93;;
173;SDS011;75;48.784;9.364;2022-12-11T09:34:49;46.70;;;28.63;;
173;SDS011;75;48.784;9.364;2022-12-11T09:37:17;46.97;;;27.93;;
173;SDS011;75;48.784;9.364;2022-12-11T09:39:44;48.70;;;29.20;;
173;SDS011;75;48.784;9.364;2022-12-11T09:42:20;49.73;;;29.47;;
173;SDS011;75;48.784;9.364;2022-12-11T09:44:50;52.33;;;32.23;;
173;SDS011;75;48.784;9.364;2022-12-11T09:47:26;51.40;;;31.70;;
173;SDS011;75;48.784;9.364;2022-12-11T09:52:33;46.23;;;30.70;;
173;SDS011;75;48.784;9.364;2022-12-11T09:55:18;43.10;;;26.47;;
173;SDS011;75;48.784;9.364;2022-12-11T09:58:04;40.77;;;25.00;;
173;SDS011;75;48.784;9.364;2022-12-11T10:00:37;39.87;;;22.57;;
173;SDS011;75;48.784;9.364;2022-12-11T10:05:41;36.20;;;22.10;;
173;SDS011;75;48.784;9.364;2022-12-11T10:11:21;36.77;;;22.50;;
173;SDS011;75;48.784;9.364;2022-12-11T10:16:48;36.20;;;21.33;;
173;SDS011;75;48.784;9.364;2022-12-11T10:19:20;38.70;;;22.93;;
173;SDS011;75;48.784;9.364;2022-12-11T10:21:48;37.07;;;23.00;;
173;SDS011;75;48.784;9.364;2022-12-11T10:24:19;33.03;;;20.23;;
173;SDS011;75;48.784;9.364;2022-12-11T10:26:48;35.10;;;21.37;;
173;SDS011;75;48.784;9.364;2022-12-11T10:29:20;35.23;;;20.37;;
173;SDS011;75;48.784;9.364;2022-12-11T10:31:49;34.50;;;20.73;;
173;SDS011;75;48.784;9.364;2022-12-11T10:34:39;38.60;;;23.47;;
173;SDS011;75;48.784;9.364;2022-12-11T10:37:04;35.30;;;21.20;;
173;SDS011;75;48.784;9.364;2022-12-11T10:39:31;42.63;;;24.10;;
173;SDS011;75;48.784;9.364;2022-12-11T10:41:59;38.93;;;23.47;;
173;SDS011;75;48.784;9.364;2022-12-11T10:44:30;34.83;;;21.90;;
173;SDS011;75;48.784;9.364;2022-12-11T10:49:29;40.00;;;23.40;;
173;SDS011;75;48.784;9.364;2022-12-11T10:51:56;34.10;;;19.80;;
173;SDS011;75;48.784;9.364;2022-12-11T10:54:31;35.70;;;20.10;;
173;SDS011;75;48.784;9.364;2022-12-11T10:57:00;33.30;;;18.90;;
173;SDS011;75;48.784;9.364;2022-12-11T10:59:39;34.13;;;19.87;;
173;SDS011;75;48.784;9.364;2022-12-11T11:02:18;29.30;;;18.30;;
173;SDS011;75;48.784;9.364;2022-12-11T11:04:47;33.80;;;19.53;;
173;SDS011;75;48.784;9.364;2022-12-11T11:07:19;31.40;;;18.10;;
173;SDS011;75;48.784;9.364;2022-12-11T11:09:47;33.87;;;18.93;;
173;SDS011;75;48.784;9.364;2022-12-11T11:12:18;34.60;;;18.87;;
173;SDS011;75;48.784;9.364;2022-12-11T11:14:45;31.80;;;17.77;;
173;SDS011;75;48.784;9.364;2022-12-11T11:17:14;29.27;;;18.10;;
173;SDS011;75;48.784;9.364;2022-12-11T11:19:44;32.67;;;18.23;;
173;SDS011;75;48.784;9.364;2022-12-11T11:22:15;32.20;;;19.10;;
173;SDS011;75;48.784;9.364;2022-12-11T11:24:54;33.07;;;19.03;;
173;SDS011;75;48.784;9.364;2022-12-11T11:27:27;41.50;;;24.10;;
173;SDS011;75;48.784;9.364;2022-12-11T11:29:56;45.17;;;26.47;;
173;SDS011;75;48.784;9.364;2022-12-11T11:32:35;38.60;;;22.33;;
173;SDS011;75;48.784;9.364;2022-12-11T11:37:38;36.60;;;21.40;;
173;SDS011;75;48.784;9.364;2022-12-11T11:40:21;37.90;;;22.43;;
173;SDS011;75;48.784;9.364;2022-12-11T11:45:43;32.40;;;19.80;;
173;SDS011;75;48.784;9.364;2022-12-11T11:50:35;33.87;;;20.07;;
173;SDS011;75;48.784;9.364;2022-12-11T11:53:16;33.67;;;20.70;;
173;SDS011;75;48.784;9.364;2022-12-11T11:55:50;35.40;;;20.20;;
173;SDS011;75;48.784;9.364;2022-12-11T11:58:25;36.30;;;21.33;;
173;SDS011;75;48.784;9.364;2022-12-11T12:00:54;36.97;;;21.97;;
173;SDS011;75;48.784;9.364;2022-12-11T12:03:22;37.83;;;22.50;;
173;SDS011;75;48.784;9.364;2022-12-11T12:05:54;40.47;;;24.20;;
173;SDS011;75;48.784;9.364;2022-12-11T12:10:54;42.37;;;24.80;;
173;SDS011;75;48.784;9.364;2022-12-11T12:15:56;35.70;;;21.80;;
173;SDS011;75;48.784;9.364;2022-12-11T12:26:28;36.93;;;20.97;;
173;SDS011;75;48.784;9.364;2022-12-11T12:29:20;37.90;;;23.27;;
173;SDS011;75;48.784;9.364;2022-12-11T12:31:49;38.63;;;23.17;;
173;SDS011;75;48.784;9.364;2022-12-11T12:34:58;31.83;;;20.57;;
173;SDS011;75;48.784;9.364;2022-12-11T12:37:26;37.63;;;20.17;;
173;SDS011;75;48.784;9.364;2022-12-11T12:42:50;40.20;;;22.27;;
173;SDS011;75;48.784;9.364;2022-12-11T12:45:33;35.77;;;21.20;;
173;SDS011;75;48.784;9.364;2022-12-11T12:48:03;39.93;;;22.23;;
173;SDS011;75;48.784;9.364;2022-12-11T12:50:35;34.73;;;21.53;;
173;SDS011;75;48.784;9.364;2022-12-11T12:53:03;35.23;;;21.50;;
173;SDS011;75;48.784;9.364;2022-12-11T12:55:31;36.83;;;22.30;;
173;SDS011;75;48.784;9.364;2022-12-11T12:58:00;37.23;;;21.83;;
173;SDS011;75;48.784;9.364;2022-12-11T13:00:40;37.90;;;23.17;;
173;SDS011;75;48.784;9.364;2022-12-11T13:03:21;43.67;;;25.07;;
173;SDS011;75;48.784;9.364;2022-12-11T13:05:56;44.67;;;25.57;;
173;SDS011;75;48.784;9.364;2022-12-11T13:08:25;48.63;;;27.80;;
173;SDS011;75;48.784;9.364;2022-12-11T13:11:04;49.70;;;28.20;;
173;SDS011;75;48.784;9.364;2022-12-11T13:13:42;46.20;;;25.87;;
173;SDS011;75;48.784;9.364;2022-12-11T13:18:44;48.70;;;27.13;;
173;SDS011;75;48.784;9.364;2022-12-11T13:21:26;44.43;;;26.20;;
173;SDS011;75;48.784;9.364;2022-12-11T13:23:54;45.50;;;26.83;;
173;SDS011;75;48.784;9.364;2022-12-11T13:26:28;49.13;;;27.97;;
173;SDS011;75;48.784;9.364;2022-12-11T13:28:56;51.23;;;28.10;;
173;SDS011;75;48.784;9.364;2022-12-11T13:31:26;53.23;;;29.50;;
173;SDS011;75;48.784;9.364;2022-12-11T13:33:54;49.60;;;27.43;;
173;SDS011;75;48.784;9.364;2022-12-11T13:36:24;48.07;;;27.10;;
173;SDS011;75;48.784;9.364;2022-12-11T13:38:54;50.97;;;28.97;;
173;SDS011;75;48.784;9.364;2022-12-11T13:41:22;47.80;;;27.43;;
173;SDS011;75;48.784;9.364;2022-12-11T13:43:50;54.13;;;30.67;;
173;SDS011;75;48.784;9.364;2022-12-11T13:46:23;50.33;;;28.40;;
173;SDS011;75;48.784;9.364;2022-12-11T13:48:51;48.40;;;27.47;;
173;SDS011;75;48.784;9.364;2022-12-11T13:51:27;50.67;;;27.57;;
173;SDS011;75;48.784;9.364;2022-12-11T13:54:02;51.97;;;28.83;;
173;SDS011;75;48.784;9.364;2022-12-11T13:56:30;52.30;;;29.20;;
173;SDS011;75;48.784;9.364;2022-12-11T13:58:57;51.80;;;29.10;;
173;SDS011;75;48.784;9.364;2022-12-11T14:01:26;56.93;;;30.20;;
173;SDS011;75;48.784;9.364;2022-12-11T14:04:00;57.00;;;30.43;;
173;SDS011;75;48.784;9.364;2022-12-11T14:06:28;61.77;;;34.40;;
173;SDS011;75;48.784;9.364;2022-12-11T14:08:57;56.37;;;30.10;;
173;SDS011;75;48.784;9.364;2022-12-11T14:11:39;58.17;;;31.37;;
173;SDS011;75;48.784;9.364;2022-12-11T14:14:13;63.50;;;34.27;;
173;SDS011;75;48.784;9.364;2022-12-11T14:16:42;62.97;;;32.67;;
173;SDS011;75;48.784;9.364;2022-12-11T14:19:13;58.10;;;31.70;;
173;SDS011;75;48.784;9.364;2022-12-11T14:21:41;60.30;;;31.87;;
173;SDS011;75;48.784;9.364;2022-12-11T14:24:09;58.53;;;30.63;;
173;SDS011;75;48.784;9.364;2022-12-11T14:26:38;57.50;;;30.67;;
173;SDS011;75;48.784;9.364;2022-12-11T14:29:05;56.63;;;30.70;;
173;SDS011;75;48.784;9.364;2022-12-11T14:31:34;57.67;;;32.10;;
173;SDS011;75;48.784;9.364;2022-12-11T14:34:06;56.33;;;31.33;;
173;SDS011;75;48.784;9.364;2022-12-11T14:36:37;57.37;;;31.07;;
173;SDS011;75;48.784;9.364;2022-12-11T14:39:10;59.87;;;33.30;;
173;SDS011;75;48.784;9.364;2022-12-11T14:44:05;55.40;;;30.00;;
173;SDS011;75;48.784;9.364;2022-12-11T14:46:36;52.70;;;28.70;;
173;SDS011;75;48.784;9.364;2022-12-11T14:49:16;55.87;;;28.63;;
173;SDS011;75;48.784;9.364;2022-12-11T14:51:46;47.40;;;26.73;;
173;SDS011;75;48.784;9.364;2022-12-11T14:54:17;51.03;;;27.57;;
173;SDS011;75;48.784;9.364;2022-12-11T14:56:47;51.20;;;27.57;;
173;SDS011;75;48.784;9.364;2022-12-11T14:59:16;58.47;;;30.87;;
173;SDS011;75;48.784;9.364;2022-12-11T15:01:45;58.67;;;32.80;;
173;SDS011;75;48.784;9.364;2022-12-11T15:04:25;56.33;;;30.13;;
173;SDS011;75;48.784;9.364;2022-12-11T15:06:52;53.97;;;28.70;;
173;SDS011;75;48.784;9.364;2022-12-11T15:09:25;66.33;;;33.57;;
173;SDS011;75;48.784;9.364;2022-12-11T15:11:57;70.10;;;36.53;;
173;SDS011;75;48.784;9.364;2022-12-11T15:14:25;58.53;;;31.83;;
173;SDS011;75;48.784;9.364;2022-12-11T15:16:53;59.70;;;32.50;;
173;SDS011;75;48.784;9.364;2022-12-11T15:19:27;61.80;;;31.90;;
173;SDS011;75;48.784;9.364;2022-12-11T15:21:59;54.27;;;28.70;;
173;SDS011;75;48.784;9.364;2022-12-11T15:24:29;60.23;;;31.57;;
173;SDS011;75;48.784;9.364;2022-12-11T15:26:59;55.20;;;29.90;;
173;SDS011;75;48.784;9.364;2022-12-11T15:29:34;59.13;;;31.87;;
173;SDS011;75;48.784;9.364;2022-12-11T15:32:03;58.47;;;31.47;;
173;SDS011;75;48.784;9.364;2022-12-11T15:34:31;75.93;;;34.17;;
173;SDS011;75;48.784;9.364;2022-12-11T15:36:59;100.30;;;40.20;;
173;SDS011;75;48.784;9.364;2022-12-11T15:39:27;69.00;;;35.43;;
173;SDS011;75;48.784;9.364;2022-12-11T15:41:54;66.20;;;34.50;;
173;SDS011;75;48.784;9.364;2022-12-11T15:44:22;67.63;;;34.50;;
173;SDS011;75;48.784;9.364;2022-12-11T15:46:49;62.10;;;32.50;;
173;SDS011;75;48.784;9.364;2022-12-11T15:49:17;61.37;;;31.23;;
173;SDS011;75;48.784;9.364;2022-12-11T15:51:49;59.57;;;31.97;;
173;SDS011;75;48.784;9.364;2022-12-11T15:54:16;54.83;;;28.93;;
173;SDS011;75;48.784;9.364;2022-12-11T15:56:43;58.80;;;30.63;;
173;SDS011;75;48.784;9.364;2022-12-11T15:59:11;64.17;;;31.67;;
173;SDS011;75;48.784;9.364;2022-12-11T16:01:38;65.40;;;32.33;;
173;SDS011;75;48.784;9.364;2022-12-11T16:04:06;156.57;;;97.57;;
173;SDS011;75;48.784;9.364;2022-12-11T16:06:33;129.33;;;79.37;;
173;SDS011;75;48.784;9.364;2022-12-11T16:09:00;105.70;;;46.10;;
173;SDS011;75;48.784;9.364;2022-12-11T16:11:30;82.10;;;37.00;;
173;SDS011;75;48.784;9.364;2022-12-11T16:13:57;69.47;;;34.60;;
173;SDS011;75;48.784;9.364;2022-12-11T16:16:29;68.30;;;33.70;;
173;SDS011;75;48.784;9.364;2022-12-11T16:18:56;55.20;;;29.20;;
173;SDS011;75;48.784;9.364;2022-12-11T16:21:23;60.30;;;30.53;;
173;SDS011;75;48.784;9.364;2022-12-11T16:23:51;62.67;;;33.83;;
173;SDS011;75;48.784;9.364;2022-12-11T16:26:18;58.13;;;29.60;;
173;SDS011;75;48.784;9.364;2022-12-11T16:28:45;63.90;;;34.17;;
173;SDS011;75;48.784;9.364;2022-12-11T16:31:13;62.10;;;33.73;;
173;SDS011;75;48.784;9.364;2022-12-11T16:33:42;82.97;;;39.73;;
173;SDS011;75;48.784;9.364;2022-12-11T16:36:13;69.93;;;33.47;;
173;SDS011;75;48.784;9.364;2022-12-11T16:38:43;64.00;;;32.03;;
173;SDS011;75;48.784;9.364;2022-12-11T16:41:11;71.80;;;35.30;;